sensor_id;sensor_type;location;lat;lon;timestamp;P1;durP1;ratioP1;P2;durP2;ratioP2
2658;SDS011;1339;53.304;10.406;2023-04-06T00:00:10;6.25;;;4.43;;
2658;SDS011;1339;53.304;10.406;2023-04-06T00:02:37;7.18;;;5.07;;
2658;SDS011;1339;53.304;10.406;2023-04-06T00:05:04;9.70;;;6.45;;
2658;SDS011;1339;53.304;10.406;2023-04-06T00:07:33;4.82;;;4.38;;
2658;SDS011;1339;53.304;10.406;2023-04-06T00:09:59;4.55;;;4.15;;
2658;SDS011;1339;53.304;10.406;2023-04-06T00:12:26;7.68;;;5.25;;
2658;SDS011;1339;53.304;10.406;2023-04-06T00:14:53;4.60;;;4.25;;
2658;SDS011;1339;53.304;10.406;2023-04-06T00:17:20;4.63;;;4.22;;
2658;SDS011;1339;53.304;10.406;2023-04-06T00:19:47;5.47;;;4.90;;
2658;SDS011;1339;53.304;10.406;2023-04-06T00:22:14;5.35;;;4.85;;
2658;SDS011;1339;53.304;10.406;2023-04-06T00:24:42;5.07;;;4.60;;
2658;SDS011;1339;53.304;10.406;2023-04-06T00:27:09;6.30;;;4.45;;
2658;SDS011;1339;53.304;10.406;2023-04-06T00:29:36;5.93;;;5.32;;
2658;SDS011;1339;53.304;10.406;2023-04-06T00:32:03;5.97;;;5.38;;
2658;SDS011;1339;53.304;10.406;2023-04-06T00:34:30;6.80;;;5.00;;
2658;SDS011;1339;53.304;10.406;2023-04-06T00:36:57;6.65;;;4.82;;
2658;SDS011;1339;53.304;10.406;2023-04-06T00:39:24;7.47;;;5.60;;
2658;SDS011;1339;53.304;10.406;2023-04-06T00:41:52;6.60;;;4.78;;
2658;SDS011;1339;53.304;10.406;2023-04-06T00:44:20;7.15;;;5.18;;
2658;SDS011;1339;53.304;10.406;2023-04-06T00:46:47;5.28;;;4.75;;
2658;SDS011;1339;53.304;10.406;2023-04-06T00:49:14;9.73;;;5.00;;
2658;SDS011;1339;53.304;10.406;2023-04-06T00:51:41;6.72;;;5.57;;
2658;SDS011;1339;53.304;10.406;2023-04-06T00:54:09;8.05;;;6.25;;
2658;SDS011;1339;53.304;10.406;2023-04-06T00:56:35;6.05;;;5.40;;
2658;SDS011;1339;53.304;10.406;2023-04-06T00:59:04;7.20;;;5.35;;
2658;SDS011;1339;53.304;10.406;2023-04-06T01:01:31;6.90;;;5.60;;
2658;SDS011;1339;53.304;10.406;2023-04-06T01:03:58;7.22;;;6.63;;
2658;SDS011;1339;53.304;10.406;2023-04-06T01:06:25;6.75;;;6.05;;
2658;SDS011;1339;53.304;10.406;2023-04-06T01:08:52;5.55;;;5.05;;
2658;SDS011;1339;53.304;10.406;2023-04-06T01:11:19;7.20;;;5.00;;
2658;SDS011;1339;53.304;10.406;2023-04-06T01:13:46;8.05;;;5.25;;
2658;SDS011;1339;53.304;10.406;2023-04-06T01:16:14;7.70;;;5.20;;
2658;SDS011;1339;53.304;10.406;2023-04-06T01:18:41;7.53;;;5.28;;
2658;SDS011;1339;53.304;10.406;2023-04-06T01:21:08;6.15;;;5.40;;
2658;SDS011;1339;53.304;10.406;2023-04-06T01:23:41;6.82;;;6.13;;
2658;SDS011;1339;53.304;10.406;2023-04-06T01:26:08;6.07;;;5.47;;
2658;SDS011;1339;53.304;10.406;2023-04-06T01:28:35;6.38;;;5.72;;
2658;SDS011;1339;53.304;10.406;2023-04-06T01:31:03;6.97;;;5.90;;
2658;SDS011;1339;53.304;10.406;2023-04-06T01:33:30;8.35;;;6.60;;
2658;SDS011;1339;53.304;10.406;2023-04-06T01:35:57;6.82;;;5.85;;
2658;SDS011;1339;53.304;10.406;2023-04-06T01:38:24;6.35;;;5.20;;
2658;SDS011;1339;53.304;10.406;2023-04-06T01:40:52;6.25;;;5.65;;
2658;SDS011;1339;53.304;10.406;2023-04-06T01:43:19;9.02;;;6.72;;
2658;SDS011;1339;53.304;10.406;2023-04-06T01:45:46;7.00;;;5.95;;
2658;SDS011;1339;53.304;10.406;2023-04-06T01:48:13;6.20;;;5.47;;
2658;SDS011;1339;53.304;10.406;2023-04-06T01:50:40;8.00;;;7.20;;
2658;SDS011;1339;53.304;10.406;2023-04-06T01:53:07;9.43;;;6.95;;
2658;SDS011;1339;53.304;10.406;2023-04-06T01:55:34;8.68;;;6.43;;
2658;SDS011;1339;53.304;10.406;2023-04-06T01:58:03;8.32;;;7.22;;
2658;SDS011;1339;53.304;10.406;2023-04-06T02:00:29;9.82;;;7.45;;
2658;SDS011;1339;53.304;10.406;2023-04-06T02:02:56;7.95;;;6.40;;
2658;SDS011;1339;53.304;10.406;2023-04-06T02:05:24;9.32;;;7.70;;
2658;SDS011;1339;53.304;10.406;2023-04-06T02:07:51;10.43;;;6.90;;
2658;SDS011;1339;53.304;10.406;2023-04-06T02:10:18;8.77;;;6.57;;
2658;SDS011;1339;53.304;10.406;2023-04-06T02:12:45;9.27;;;6.82;;
2658;SDS011;1339;53.304;10.406;2023-04-06T02:15:13;7.75;;;6.95;;
2658;SDS011;1339;53.304;10.406;2023-04-06T02:17:40;9.98;;;7.72;;
2658;SDS011;1339;53.304;10.406;2023-04-06T02:20:08;10.65;;;7.22;;
2658;SDS011;1339;53.304;10.406;2023-04-06T02:22:35;8.32;;;7.38;;
2658;SDS011;1339;53.304;10.406;2023-04-06T02:25:02;10.68;;;7.28;;
2658;SDS011;1339;53.304;10.406;2023-04-06T02:27:29;8.63;;;7.72;;
2658;SDS011;1339;53.304;10.406;2023-04-06T02:29:56;9.48;;;7.50;;
2658;SDS011;1339;53.304;10.406;2023-04-06T02:32:24;10.70;;;8.02;;
2658;SDS011;1339;53.304;10.406;2023-04-06T02:34:51;9.85;;;7.07;;
2658;SDS011;1339;53.304;10.406;2023-04-06T02:37:18;7.63;;;6.72;;
2658;SDS011;1339;53.304;10.406;2023-04-06T02:39:45;9.48;;;8.25;;
2658;SDS011;1339;53.304;10.406;2023-04-06T02:42:12;10.57;;;7.65;;
2658;SDS011;1339;53.304;10.406;2023-04-06T02:44:40;8.18;;;7.35;;
2658;SDS011;1339;53.304;10.406;2023-04-06T02:47:07;12.20;;;7.72;;
2658;SDS011;1339;53.304;10.406;2023-04-06T02:49:35;12.10;;;7.05;;
2658;SDS011;1339;53.304;10.406;2023-04-06T02:52:02;9.10;;;7.40;;
2658;SDS011;1339;53.304;10.406;2023-04-06T02:54:29;7.75;;;6.95;;
2658;SDS011;1339;53.304;10.406;2023-04-06T02:56:56;7.32;;;6.63;;
2658;SDS011;1339;53.304;10.406;2023-04-06T02:59:23;7.60;;;6.78;;
2658;SDS011;1339;53.304;10.406;2023-04-06T03:01:50;8.25;;;6.93;;
2658;SDS011;1339;53.304;10.406;2023-04-06T03:04:17;9.57;;;7.43;;
2658;SDS011;1339;53.304;10.406;2023-04-06T03:06:45;10.07;;;6.72;;
2658;SDS011;1339;53.304;10.406;2023-04-06T03:09:12;7.45;;;6.75;;
2658;SDS011;1339;53.304;10.406;2023-04-06T03:11:40;9.50;;;7.20;;
2658;SDS011;1339;53.304;10.406;2023-04-06T03:14:07;10.13;;;6.93;;
2658;SDS011;1339;53.304;10.406;2023-04-06T03:16:33;6.80;;;6.10;;
2658;SDS011;1339;53.304;10.406;2023-04-06T03:19:00;8.48;;;6.13;;
2658;SDS011;1339;53.304;10.406;2023-04-06T03:21:27;9.82;;;7.28;;
2658;SDS011;1339;53.304;10.406;2023-04-06T03:23:55;10.07;;;7.45;;
2658;SDS011;1339;53.304;10.406;2023-04-06T03:26:22;8.48;;;6.82;;
2658;SDS011;1339;53.304;10.406;2023-04-06T03:28:49;11.05;;;7.32;;
2658;SDS011;1339;53.304;10.406;2023-04-06T03:31:16;7.35;;;6.65;;
2658;SDS011;1339;53.304;10.406;2023-04-06T03:33:43;9.52;;;6.95;;
2658;SDS011;1339;53.304;10.406;2023-04-06T03:36:10;8.05;;;7.07;;
2658;SDS011;1339;53.304;10.406;2023-04-06T03:38:37;9.15;;;6.90;;
2658;SDS011;1339;53.304;10.406;2023-04-06T03:41:05;8.55;;;6.25;;
2658;SDS011;1339;53.304;10.406;2023-04-06T03:43:32;7.45;;;6.70;;
2658;SDS011;1339;53.304;10.406;2023-04-06T03:45:59;14.82;;;7.05;;
2658;SDS011;1339;53.304;10.406;2023-04-06T03:48:26;7.88;;;6.05;;
2658;SDS011;1339;53.304;10.406;2023-04-06T03:50:53;6.85;;;6.13;;
2658;SDS011;1339;53.304;10.406;2023-04-06T03:53:20;11.40;;;6.65;;
2658;SDS011;1339;53.304;10.406;2023-04-06T03:55:47;10.98;;;7.80;;
2658;SDS011;1339;53.304;10.406;2023-04-06T03:58:15;7.25;;;6.35;;
2658;SDS011;1339;53.304;10.406;2023-04-06T04:00:42;9.43;;;7.10;;
2658;SDS011;1339;53.304;10.406;2023-04-06T04:03:09;8.63;;;7.82;;
2658;SDS011;1339;53.304;10.406;2023-04-06T04:05:36;12.63;;;7.65;;
2658;SDS011;1339;53.304;10.406;2023-04-06T04:08:03;9.77;;;7.40;;
2658;SDS011;1339;53.304;10.406;2023-04-06T04:10:30;12.20;;;7.05;;
2658;SDS011;1339;53.304;10.406;2023-04-06T04:12:57;6.85;;;6.00;;
2658;SDS011;1339;53.304;10.406;2023-04-06T04:15:25;9.02;;;7.43;;
2658;SDS011;1339;53.304;10.406;2023-04-06T04:17:52;11.80;;;7.60;;
2658;SDS011;1339;53.304;10.406;2023-04-06T04:20:19;8.98;;;7.75;;
2658;SDS011;1339;53.304;10.406;2023-04-06T04:22:46;12.48;;;6.97;;
2658;SDS011;1339;53.304;10.406;2023-04-06T04:25:13;7.13;;;6.43;;
2658;SDS011;1339;53.304;10.406;2023-04-06T04:27:40;11.27;;;8.55;;
2658;SDS011;1339;53.304;10.406;2023-04-06T04:30:07;8.88;;;7.97;;
2658;SDS011;1339;53.304;10.406;2023-04-06T04:32:35;15.80;;;7.50;;
2658;SDS011;1339;53.304;10.406;2023-04-06T04:35:03;10.60;;;7.50;;
2658;SDS011;1339;53.304;10.406;2023-04-06T04:37:29;9.18;;;7.85;;
2658;SDS011;1339;53.304;10.406;2023-04-06T04:39:56;13.30;;;7.65;;
2658;SDS011;1339;53.304;10.406;2023-04-06T04:42:23;9.80;;;7.97;;
2658;SDS011;1339;53.304;10.406;2023-04-06T04:44:50;9.27;;;7.38;;
2658;SDS011;1339;53.304;10.406;2023-04-06T04:47:17;11.02;;;7.60;;
2658;SDS011;1339;53.304;10.406;2023-04-06T04:49:45;8.25;;;7.35;;
2658;SDS011;1339;53.304;10.406;2023-04-06T04:52:12;8.77;;;7.55;;
2658;SDS011;1339;53.304;10.406;2023-04-06T04:54:39;8.50;;;7.65;;
2658;SDS011;1339;53.304;10.406;2023-04-06T04:57:07;7.85;;;6.72;;
2658;SDS011;1339;53.304;10.406;2023-04-06T04:59:34;9.45;;;8.45;;
2658;SDS011;1339;53.304;10.406;2023-04-06T05:02:01;9.45;;;8.27;;
2658;SDS011;1339;53.304;10.406;2023-04-06T05:04:28;18.20;;;8.15;;
2658;SDS011;1339;53.304;10.406;2023-04-06T05:07:03;9.52;;;8.50;;
2658;SDS011;1339;53.304;10.406;2023-04-06T05:09:30;10.35;;;8.13;;
2658;SDS011;1339;53.304;10.406;2023-04-06T05:11:57;11.23;;;9.10;;
2658;SDS011;1339;53.304;10.406;2023-04-06T05:14:25;9.90;;;9.00;;
2658;SDS011;1339;53.304;10.406;2023-04-06T05:16:52;10.52;;;8.65;;
2658;SDS011;1339;53.304;10.406;2023-04-06T05:19:19;12.00;;;9.38;;
2658;SDS011;1339;53.304;10.406;2023-04-06T05:21:46;15.73;;;8.55;;
2658;SDS011;1339;53.304;10.406;2023-04-06T05:24:14;13.13;;;9.68;;
2658;SDS011;1339;53.304;10.406;2023-04-06T05:26:41;10.02;;;8.23;;
2658;SDS011;1339;53.304;10.406;2023-04-06T05:29:08;16.30;;;8.90;;
2658;SDS011;1339;53.304;10.406;2023-04-06T05:31:35;12.35;;;7.78;;
2658;SDS011;1339;53.304;10.406;2023-04-06T05:34:02;9.65;;;8.85;;
2658;SDS011;1339;53.304;10.406;2023-04-06T05:36:29;11.60;;;7.82;;
2658;SDS011;1339;53.304;10.406;2023-04-06T05:38:57;10.30;;;7.80;;
2658;SDS011;1339;53.304;10.406;2023-04-06T05:41:25;17.25;;;8.85;;
2658;SDS011;1339;53.304;10.406;2023-04-06T05:43:52;11.93;;;8.40;;
2658;SDS011;1339;53.304;10.406;2023-04-06T05:46:19;9.93;;;7.97;;
2658;SDS011;1339;53.304;10.406;2023-04-06T05:48:46;15.40;;;8.25;;
2658;SDS011;1339;53.304;10.406;2023-04-06T05:51:13;15.45;;;8.45;;
2658;SDS011;1339;53.304;10.406;2023-04-06T05:53:40;17.85;;;8.00;;
2658;SDS011;1339;53.304;10.406;2023-04-06T05:56:07;17.27;;;9.20;;
2658;SDS011;1339;53.304;10.406;2023-04-06T05:58:35;18.83;;;8.48;;
2658;SDS011;1339;53.304;10.406;2023-04-06T06:01:02;28.75;;;11.45;;
2658;SDS011;1339;53.304;10.406;2023-04-06T06:03:29;55.22;;;25.33;;
2658;SDS011;1339;53.304;10.406;2023-04-06T06:05:59;37.45;;;20.80;;
2658;SDS011;1339;53.304;10.406;2023-04-06T06:08:26;25.27;;;16.00;;
2658;SDS011;1339;53.304;10.406;2023-04-06T06:10:53;25.50;;;16.02;;
2658;SDS011;1339;53.304;10.406;2023-04-06T06:13:20;30.58;;;18.20;;
2658;SDS011;1339;53.304;10.406;2023-04-06T06:15:49;27.20;;;15.30;;
2658;SDS011;1339;53.304;10.406;2023-04-06T06:18:16;18.52;;;11.70;;
2658;SDS011;1339;53.304;10.406;2023-04-06T06:20:43;13.95;;;10.57;;
2658;SDS011;1339;53.304;10.406;2023-04-06T06:23:10;17.42;;;11.63;;
2658;SDS011;1339;53.304;10.406;2023-04-06T06:25:37;16.42;;;10.55;;
2658;SDS011;1339;53.304;10.406;2023-04-06T06:28:04;14.38;;;10.02;;
2658;SDS011;1339;53.304;10.406;2023-04-06T06:30:31;12.65;;;9.40;;
2658;SDS011;1339;53.304;10.406;2023-04-06T06:32:59;9.27;;;8.20;;
2658;SDS011;1339;53.304;10.406;2023-04-06T06:35:26;14.40;;;8.65;;
2658;SDS011;1339;53.304;10.406;2023-04-06T06:37:53;9.40;;;8.13;;
2658;SDS011;1339;53.304;10.406;2023-04-06T06:40:20;9.63;;;8.63;;
2658;SDS011;1339;53.304;10.406;2023-04-06T06:42:48;13.80;;;8.90;;
2658;SDS011;1339;53.304;10.406;2023-04-06T06:45:16;9.40;;;8.15;;
2658;SDS011;1339;53.304;10.406;2023-04-06T06:47:43;9.63;;;8.63;;
2658;SDS011;1339;53.304;10.406;2023-04-06T06:50:11;8.57;;;7.15;;
2658;SDS011;1339;53.304;10.406;2023-04-06T06:52:39;16.20;;;8.20;;
2658;SDS011;1339;53.304;10.406;2023-04-06T06:55:07;10.15;;;7.85;;
2658;SDS011;1339;53.304;10.406;2023-04-06T06:57:34;10.98;;;7.47;;
2658;SDS011;1339;53.304;10.406;2023-04-06T07:00:01;16.38;;;8.05;;
2658;SDS011;1339;53.304;10.406;2023-04-06T07:02:30;7.55;;;6.82;;
2658;SDS011;1339;53.304;10.406;2023-04-06T07:04:57;10.55;;;7.60;;
2658;SDS011;1339;53.304;10.406;2023-04-06T07:07:25;9.35;;;8.30;;
2658;SDS011;1339;53.304;10.406;2023-04-06T07:09:52;10.07;;;6.72;;
2658;SDS011;1339;53.304;10.406;2023-04-06T07:12:19;7.40;;;6.65;;
2658;SDS011;1339;53.304;10.406;2023-04-06T07:14:46;7.78;;;6.90;;
2658;SDS011;1339;53.304;10.406;2023-04-06T07:17:13;10.93;;;7.15;;
2658;SDS011;1339;53.304;10.406;2023-04-06T07:19:40;7.25;;;6.57;;
2658;SDS011;1339;53.304;10.406;2023-04-06T07:22:07;8.43;;;7.30;;
2658;SDS011;1339;53.304;10.406;2023-04-06T07:24:36;7.70;;;6.68;;
2658;SDS011;1339;53.304;10.406;2023-04-06T07:27:03;7.78;;;6.93;;
2658;SDS011;1339;53.304;10.406;2023-04-06T07:29:30;7.00;;;6.40;;
2658;SDS011;1339;53.304;10.406;2023-04-06T07:31:57;6.90;;;6.25;;
2658;SDS011;1339;53.304;10.406;2023-04-06T07:34:24;6.70;;;6.00;;
2658;SDS011;1339;53.304;10.406;2023-04-06T07:36:51;8.88;;;6.35;;
2658;SDS011;1339;53.304;10.406;2023-04-06T07:39:19;7.25;;;5.70;;
2658;SDS011;1339;53.304;10.406;2023-04-06T07:41:47;6.07;;;5.47;;
2658;SDS011;1339;53.304;10.406;2023-04-06T07:44:14;7.70;;;7.00;;
2658;SDS011;1339;53.304;10.406;2023-04-06T07:46:41;6.95;;;5.50;;
2658;SDS011;1339;53.304;10.406;2023-04-06T07:49:08;7.22;;;5.43;;
2658;SDS011;1339;53.304;10.406;2023-04-06T07:51:35;8.75;;;6.03;;
2658;SDS011;1339;53.304;10.406;2023-04-06T07:54:02;9.65;;;7.00;;
2658;SDS011;1339;53.304;10.406;2023-04-06T07:56:30;7.22;;;5.15;;
2658;SDS011;1339;53.304;10.406;2023-04-06T07:58:58;7.18;;;5.97;;
2658;SDS011;1339;53.304;10.406;2023-04-06T08:01:26;7.18;;;6.68;;
2658;SDS011;1339;53.304;10.406;2023-04-06T08:03:53;9.70;;;8.80;;
2658;SDS011;1339;53.304;10.406;2023-04-06T08:06:20;8.43;;;6.75;;
2658;SDS011;1339;53.304;10.406;2023-04-06T08:08:47;5.85;;;5.25;;
2658;SDS011;1339;53.304;10.406;2023-04-06T08:11:14;6.25;;;5.65;;
2658;SDS011;1339;53.304;10.406;2023-04-06T08:13:41;6.55;;;5.30;;
2658;SDS011;1339;53.304;10.406;2023-04-06T08:16:09;5.28;;;4.75;;
2658;SDS011;1339;53.304;10.406;2023-04-06T08:18:36;6.03;;;5.53;;
2658;SDS011;1339;53.304;10.406;2023-04-06T08:21:03;8.25;;;4.93;;
2658;SDS011;1339;53.304;10.406;2023-04-06T08:23:30;8.98;;;4.47;;
2658;SDS011;1339;53.304;10.406;2023-04-06T08:25:57;6.10;;;5.40;;
2658;SDS011;1339;53.304;10.406;2023-04-06T08:28:24;5.22;;;4.57;;
2658;SDS011;1339;53.304;10.406;2023-04-06T08:30:51;4.90;;;4.40;;
2658;SDS011;1339;53.304;10.406;2023-04-06T08:33:19;5.93;;;4.80;;
2658;SDS011;1339;53.304;10.406;2023-04-06T08:35:46;8.77;;;4.50;;
2658;SDS011;1339;53.304;10.406;2023-04-06T08:38:13;4.70;;;4.30;;
2658;SDS011;1339;53.304;10.406;2023-04-06T08:40:40;6.35;;;4.95;;
2658;SDS011;1339;53.304;10.406;2023-04-06T08:43:10;4.55;;;3.58;;
2658;SDS011;1339;53.304;10.406;2023-04-06T08:45:40;4.55;;;4.15;;
2658;SDS011;1339;53.304;10.406;2023-04-06T08:48:07;4.38;;;4.00;;
2658;SDS011;1339;53.304;10.406;2023-04-06T08:50:36;7.20;;;3.53;;
2658;SDS011;1339;53.304;10.406;2023-04-06T08:53:04;5.70;;;3.42;;
2658;SDS011;1339;53.304;10.406;2023-04-06T08:55:33;5.03;;;3.85;;
2658;SDS011;1339;53.304;10.406;2023-04-06T08:58:00;4.25;;;3.90;;
2658;SDS011;1339;53.304;10.406;2023-04-06T09:00:27;5.10;;;4.03;;
2658;SDS011;1339;53.304;10.406;2023-04-06T09:02:54;5.28;;;4.85;;
2658;SDS011;1339;53.304;10.406;2023-04-06T09:05:23;3.80;;;3.50;;
2658;SDS011;1339;53.304;10.406;2023-04-06T09:07:52;7.28;;;4.30;;
2658;SDS011;1339;53.304;10.406;2023-04-06T09:10:19;5.57;;;3.75;;
2658;SDS011;1339;53.304;10.406;2023-04-06T09:12:48;6.68;;;4.32;;
2658;SDS011;1339;53.304;10.406;2023-04-06T09:15:18;4.95;;;4.35;;
2658;SDS011;1339;53.304;10.406;2023-04-06T09:17:45;5.15;;;4.07;;
2658;SDS011;1339;53.304;10.406;2023-04-06T09:20:12;4.72;;;4.25;;
2658;SDS011;1339;53.304;10.406;2023-04-06T09:22:40;6.07;;;4.45;;
2658;SDS011;1339;53.304;10.406;2023-04-06T09:25:09;4.00;;;3.60;;
2658;SDS011;1339;53.304;10.406;2023-04-06T09:27:45;4.68;;;4.13;;
2658;SDS011;1339;53.304;10.406;2023-04-06T09:30:12;4.85;;;4.20;;
2658;SDS011;1339;53.304;10.406;2023-04-06T09:32:44;4.57;;;4.18;;
2658;SDS011;1339;53.304;10.406;2023-04-06T09:35:12;4.40;;;4.00;;
2658;SDS011;1339;53.304;10.406;2023-04-06T09:37:39;5.10;;;3.53;;
2658;SDS011;1339;53.304;10.406;2023-04-06T09:40:07;7.10;;;5.03;;
2658;SDS011;1339;53.304;10.406;2023-04-06T09:42:35;4.45;;;4.05;;
2658;SDS011;1339;53.304;10.406;2023-04-06T09:45:02;6.65;;;4.80;;
2658;SDS011;1339;53.304;10.406;2023-04-06T09:47:30;5.03;;;4.50;;
2658;SDS011;1339;53.304;10.406;2023-04-06T09:49:58;8.35;;;5.35;;
2658;SDS011;1339;53.304;10.406;2023-04-06T09:52:26;8.57;;;5.50;;
2658;SDS011;1339;53.304;10.406;2023-04-06T09:54:53;5.40;;;4.88;;
2658;SDS011;1339;53.304;10.406;2023-04-06T09:57:23;5.88;;;5.38;;
2658;SDS011;1339;53.304;10.406;2023-04-06T09:59:54;7.93;;;4.75;;
2658;SDS011;1339;53.304;10.406;2023-04-06T10:02:25;7.25;;;5.75;;
2658;SDS011;1339;53.304;10.406;2023-04-06T10:04:55;8.15;;;5.70;;
2658;SDS011;1339;53.304;10.406;2023-04-06T10:07:23;6.15;;;5.35;;
2658;SDS011;1339;53.304;10.406;2023-04-06T10:09:51;6.50;;;5.90;;
2658;SDS011;1339;53.304;10.406;2023-04-06T10:12:19;6.70;;;5.57;;
2658;SDS011;1339;53.304;10.406;2023-04-06T10:14:47;7.45;;;5.72;;
2658;SDS011;1339;53.304;10.406;2023-04-06T10:17:15;6.35;;;5.75;;
2658;SDS011;1339;53.304;10.406;2023-04-06T10:19:44;5.20;;;4.72;;
2658;SDS011;1339;53.304;10.406;2023-04-06T10:22:15;6.93;;;5.65;;
2658;SDS011;1339;53.304;10.406;2023-04-06T10:24:45;6.07;;;5.55;;
2658;SDS011;1339;53.304;10.406;2023-04-06T10:27:12;6.03;;;5.43;;
2658;SDS011;1339;53.304;10.406;2023-04-06T10:29:42;6.13;;;5.63;;
2658;SDS011;1339;53.304;10.406;2023-04-06T10:32:10;9.13;;;5.95;;
2658;SDS011;1339;53.304;10.406;2023-04-06T10:34:38;7.03;;;6.43;;
2658;SDS011;1339;53.304;10.406;2023-04-06T10:37:12;6.82;;;6.22;;
2658;SDS011;1339;53.304;10.406;2023-04-06T10:39:46;5.82;;;5.20;;
2658;SDS011;1339;53.304;10.406;2023-04-06T10:42:13;5.88;;;5.32;;
2658;SDS011;1339;53.304;10.406;2023-04-06T10:44:42;7.50;;;5.90;;
2658;SDS011;1339;53.304;10.406;2023-04-06T10:47:15;7.50;;;5.82;;
2658;SDS011;1339;53.304;10.406;2023-04-06T10:49:44;5.85;;;5.28;;
2658;SDS011;1339;53.304;10.406;2023-04-06T10:52:11;8.02;;;7.22;;
2658;SDS011;1339;53.304;10.406;2023-04-06T10:54:40;6.50;;;5.90;;
2658;SDS011;1339;53.304;10.406;2023-04-06T10:57:07;9.85;;;6.78;;
2658;SDS011;1339;53.304;10.406;2023-04-06T10:59:34;6.47;;;5.88;;
2658;SDS011;1339;53.304;10.406;2023-04-06T11:02:01;7.40;;;6.70;;
2658;SDS011;1339;53.304;10.406;2023-04-06T11:04:28;9.10;;;6.40;;
2658;SDS011;1339;53.304;10.406;2023-04-06T11:06:57;8.48;;;7.63;;
2658;SDS011;1339;53.304;10.406;2023-04-06T11:09:24;6.75;;;5.95;;
2658;SDS011;1339;53.304;10.406;2023-04-06T11:11:52;7.00;;;6.40;;
2658;SDS011;1339;53.304;10.406;2023-04-06T11:14:20;6.70;;;6.10;;
2658;SDS011;1339;53.304;10.406;2023-04-06T11:16:47;8.40;;;6.53;;
2658;SDS011;1339;53.304;10.406;2023-04-06T11:19:14;8.48;;;7.38;;
2658;SDS011;1339;53.304;10.406;2023-04-06T11:21:42;6.53;;;5.93;;
2658;SDS011;1339;53.304;10.406;2023-04-06T11:24:13;7.22;;;6.57;;
2658;SDS011;1339;53.304;10.406;2023-04-06T11:26:41;8.65;;;6.93;;
2658;SDS011;1339;53.304;10.406;2023-04-06T11:29:09;9.82;;;6.05;;
2658;SDS011;1339;53.304;10.406;2023-04-06T11:31:40;7.47;;;6.15;;
2658;SDS011;1339;53.304;10.406;2023-04-06T11:34:10;7.70;;;7.00;;
2658;SDS011;1339;53.304;10.406;2023-04-06T11:36:39;8.60;;;7.32;;
2658;SDS011;1339;53.304;10.406;2023-04-06T11:39:07;7.85;;;6.68;;
2658;SDS011;1339;53.304;10.406;2023-04-06T11:41:36;8.07;;;7.28;;
2658;SDS011;1339;53.304;10.406;2023-04-06T11:44:03;7.93;;;7.07;;
2658;SDS011;1339;53.304;10.406;2023-04-06T11:46:30;10.20;;;7.47;;
2658;SDS011;1339;53.304;10.406;2023-04-06T11:48:57;7.55;;;6.75;;
2658;SDS011;1339;53.304;10.406;2023-04-06T11:51:25;7.25;;;6.65;;
2658;SDS011;1339;53.304;10.406;2023-04-06T11:53:52;7.80;;;7.00;;
2658;SDS011;1339;53.304;10.406;2023-04-06T11:56:23;7.53;;;6.80;;
2658;SDS011;1339;53.304;10.406;2023-04-06T11:58:52;7.95;;;7.05;;
2658;SDS011;1339;53.304;10.406;2023-04-06T12:01:19;9.27;;;8.48;;
2658;SDS011;1339;53.304;10.406;2023-04-06T12:03:46;10.15;;;6.85;;
2658;SDS011;1339;53.304;10.406;2023-04-06T12:06:13;7.68;;;6.93;;
2658;SDS011;1339;53.304;10.406;2023-04-06T12:08:40;7.65;;;6.90;;
2658;SDS011;1339;53.304;10.406;2023-04-06T12:11:07;9.05;;;8.15;;
2658;SDS011;1339;53.304;10.406;2023-04-06T12:13:34;7.78;;;7.00;;
2658;SDS011;1339;53.304;10.406;2023-04-06T12:16:02;10.95;;;7.85;;
2658;SDS011;1339;53.304;10.406;2023-04-06T12:18:29;9.13;;;8.23;;
2658;SDS011;1339;53.304;10.406;2023-04-06T12:20:56;12.57;;;8.85;;
2658;SDS011;1339;53.304;10.406;2023-04-06T12:23:23;9.68;;;8.57;;
2658;SDS011;1339;53.304;10.406;2023-04-06T12:25:50;7.50;;;6.80;;
2658;SDS011;1339;53.304;10.406;2023-04-06T12:28:17;9.55;;;6.75;;
2658;SDS011;1339;53.304;10.406;2023-04-06T12:30:48;8.10;;;7.40;;
2658;SDS011;1339;53.304;10.406;2023-04-06T12:33:16;7.43;;;6.72;;
2658;SDS011;1339;53.304;10.406;2023-04-06T12:35:43;9.00;;;7.23;;
2658;SDS011;1339;53.304;10.406;2023-04-06T12:38:10;8.17;;;7.47;;
2658;SDS011;1339;53.304;10.406;2023-04-06T12:40:37;8.60;;;7.87;;
2658;SDS011;1339;53.304;10.406;2023-04-06T12:43:04;9.27;;;8.40;;
2658;SDS011;1339;53.304;10.406;2023-04-06T12:45:31;9.20;;;7.87;;
2658;SDS011;1339;53.304;10.406;2023-04-06T12:47:58;9.07;;;8.13;;
2658;SDS011;1339;53.304;10.406;2023-04-06T12:50:27;11.60;;;8.07;;
2658;SDS011;1339;53.304;10.406;2023-04-06T12:52:54;14.20;;;9.10;;
2658;SDS011;1339;53.304;10.406;2023-04-06T12:55:21;9.63;;;8.23;;
2658;SDS011;1339;53.304;10.406;2023-04-06T12:57:48;9.53;;;8.30;;
2658;SDS011;1339;53.304;10.406;2023-04-06T13:00:15;8.40;;;7.60;;
2658;SDS011;1339;53.304;10.406;2023-04-06T13:02:42;8.97;;;8.17;;
2658;SDS011;1339;53.304;10.406;2023-04-06T13:05:11;9.97;;;9.13;;
2658;SDS011;1339;53.304;10.406;2023-04-06T13:07:40;13.67;;;8.37;;
2658;SDS011;1339;53.304;10.406;2023-04-06T13:10:07;9.70;;;7.50;;
2658;SDS011;1339;53.304;10.406;2023-04-06T13:12:34;8.10;;;7.33;;
2658;SDS011;1339;53.304;10.406;2023-04-06T13:15:02;9.60;;;8.60;;
2658;SDS011;1339;53.304;10.406;2023-04-06T13:17:29;8.90;;;8.20;;
2658;SDS011;1339;53.304;10.406;2023-04-06T13:19:56;12.53;;;8.53;;
2658;SDS011;1339;53.304;10.406;2023-04-06T13:22:23;8.33;;;7.53;;
2658;SDS011;1339;53.304;10.406;2023-04-06T13:24:51;8.10;;;7.30;;
2658;SDS011;1339;53.304;10.406;2023-04-06T13:27:18;8.37;;;7.63;;
2658;SDS011;1339;53.304;10.406;2023-04-06T13:29:45;8.80;;;7.90;;
2658;SDS011;1339;53.304;10.406;2023-04-06T13:32:12;8.90;;;8.10;;
2658;SDS011;1339;53.304;10.406;2023-04-06T13:34:39;8.40;;;7.70;;
2658;SDS011;1339;53.304;10.406;2023-04-06T13:37:09;9.33;;;8.37;;
2658;SDS011;1339;53.304;10.406;2023-04-06T13:39:36;9.50;;;8.70;;
2658;SDS011;1339;53.304;10.406;2023-04-06T13:42:04;8.47;;;7.70;;
2658;SDS011;1339;53.304;10.406;2023-04-06T13:44:32;10.30;;;9.30;;
2658;SDS011;1339;53.304;10.406;2023-04-06T13:46:59;8.63;;;7.93;;
2658;SDS011;1339;53.304;10.406;2023-04-06T13:49:26;7.60;;;6.80;;
2658;SDS011;1339;53.304;10.406;2023-04-06T13:51:53;9.40;;;8.47;;
2658;SDS011;1339;53.304;10.406;2023-04-06T13:54:20;12.37;;;8.20;;
2658;SDS011;1339;53.304;10.406;2023-04-06T13:56:47;8.73;;;7.27;;
2658;SDS011;1339;53.304;10.406;2023-04-06T13:59:15;8.63;;;7.83;;
2658;SDS011;1339;53.304;10.406;2023-04-06T14:01:43;10.27;;;7.70;;
2658;SDS011;1339;53.304;10.406;2023-04-06T14:04:10;7.93;;;7.23;;
2658;SDS011;1339;53.304;10.406;2023-04-06T14:06:36;8.30;;;7.40;;
2658;SDS011;1339;53.304;10.406;2023-04-06T14:09:03;8.90;;;8.03;;
2658;SDS011;1339;53.304;10.406;2023-04-06T14:11:31;9.13;;;8.03;;
2658;SDS011;1339;53.304;10.406;2023-04-06T14:13:58;9.97;;;8.90;;
2658;SDS011;1339;53.304;10.406;2023-04-06T14:16:27;8.70;;;8.00;;
2658;SDS011;1339;53.304;10.406;2023-04-06T14:18:54;10.10;;;9.20;;
2658;SDS011;1339;53.304;10.406;2023-04-06T14:21:23;8.43;;;7.63;;
2658;SDS011;1339;53.304;10.406;2023-04-06T14:23:51;9.50;;;8.40;;
2658;SDS011;1339;53.304;10.406;2023-04-06T14:26:18;8.60;;;7.80;;
2658;SDS011;1339;53.304;10.406;2023-04-06T14:28:45;9.20;;;8.40;;
2658;SDS011;1339;53.304;10.406;2023-04-06T14:31:13;9.20;;;8.10;;
2658;SDS011;1339;53.304;10.406;2023-04-06T14:33:42;9.43;;;8.50;;
2658;SDS011;1339;53.304;10.406;2023-04-06T14:36:09;7.63;;;6.93;;
2658;SDS011;1339;53.304;10.406;2023-04-06T14:38:36;7.70;;;6.70;;
2658;SDS011;1339;53.304;10.406;2023-04-06T14:41:04;9.40;;;8.50;;
2658;SDS011;1339;53.304;10.406;2023-04-06T14:43:31;7.17;;;6.57;;
2658;SDS011;1339;53.304;10.406;2023-04-06T14:46:01;9.00;;;8.17;;
2658;SDS011;1339;53.304;10.406;2023-04-06T14:48:28;8.23;;;7.53;;
2658;SDS011;1339;53.304;10.406;2023-04-06T14:50:56;9.97;;;9.10;;
2658;SDS011;1339;53.304;10.406;2023-04-06T14:53:23;10.30;;;8.50;;
2658;SDS011;1339;53.304;10.406;2023-04-06T14:55:51;9.00;;;8.13;;
2658;SDS011;1339;53.304;10.406;2023-04-06T14:58:18;9.47;;;8.57;;